sensor_id;sensor_type;location;lat;lon;timestamp;P1;durP1;ratioP1;P2;durP2;ratioP2
10295;SDS011;5193;51.032;6.356;2022-08-11T00:01:18;10.03;;;2.43;;
10295;SDS011;5193;51.032;6.356;2022-08-11T00:03:56;5.23;;;2.00;;
10295;SDS011;5193;51.032;6.356;2022-08-11T00:06:25;4.63;;;1.90;;
10295;SDS011;5193;51.032;6.356;2022-08-11T00:09:12;3.10;;;2.17;;
10295;SDS011;5193;51.032;6.356;2022-08-11T00:11:56;4.10;;;2.13;;
10295;SDS011;5193;51.032;6.356;2022-08-11T00:19:21;3.07;;;1.93;;
10295;SDS011;5193;51.032;6.356;2022-08-11T00:21:48;6.10;;;2.00;;
10295;SDS011;5193;51.032;6.356;2022-08-11T00:24:15;4.33;;;2.20;;
10295;SDS011;5193;51.032;6.356;2022-08-11T00:26:45;5.57;;;2.37;;
10295;SDS011;5193;51.032;6.356;2022-08-11T00:29:13;2.17;;;1.80;;
10295;SDS011;5193;51.032;6.356;2022-08-11T00:31:42;5.30;;;2.00;;
10295;SDS011;5193;51.032;6.356;2022-08-11T00:34:11;6.20;;;2.30;;
10295;SDS011;5193;51.032;6.356;2022-08-11T00:36:39;4.43;;;2.00;;
10295;SDS011;5193;51.032;6.356;2022-08-11T00:39:10;7.57;;;2.77;;
10295;SDS011;5193;51.032;6.356;2022-08-11T00:44:27;6.77;;;2.40;;
10295;SDS011;5193;51.032;6.356;2022-08-11T00:47:15;6.60;;;2.40;;
10295;SDS011;5193;51.032;6.356;2022-08-11T00:50:07;4.97;;;2.47;;
10295;SDS011;5193;51.032;6.356;2022-08-11T01:15:20;6.10;;;2.30;;
10295;SDS011;5193;51.032;6.356;2022-08-11T01:46:30;4.93;;;2.40;;
10295;SDS011;5193;51.032;6.356;2022-08-11T01:49:09;4.17;;;2.83;;
10295;SDS011;5193;51.032;6.356;2022-08-11T02:00:26;5.47;;;2.27;;
10295;SDS011;5193;51.032;6.356;2022-08-11T02:03:09;7.67;;;3.03;;
10295;SDS011;5193;51.032;6.356;2022-08-11T02:17:36;3.73;;;2.67;;
10295;SDS011;5193;51.032;6.356;2022-08-11T02:19:48;9.43;;;2.63;;
10295;SDS011;5193;51.032;6.356;2022-08-11T02:33:49;7.50;;;2.97;;
10295;SDS011;5193;51.032;6.356;2022-08-11T02:36:27;8.80;;;2.70;;
10295;SDS011;5193;51.032;6.356;2022-08-11T02:39:08;5.07;;;2.93;;
10295;SDS011;5193;51.032;6.356;2022-08-11T02:47:27;5.70;;;2.80;;
10295;SDS011;5193;51.032;6.356;2022-08-11T02:50:38;10.57;;;3.10;;
10295;SDS011;5193;51.032;6.356;2022-08-11T02:55:55;4.43;;;2.63;;
10295;SDS011;5193;51.032;6.356;2022-08-11T03:01:55;5.03;;;2.80;;
10295;SDS011;5193;51.032;6.356;2022-08-11T03:04:29;5.40;;;2.83;;
10295;SDS011;5193;51.032;6.356;2022-08-11T03:10:22;11.57;;;2.93;;
10295;SDS011;5193;51.032;6.356;2022-08-11T03:16:09;4.73;;;2.83;;
10295;SDS011;5193;51.032;6.356;2022-08-11T03:19:10;6.10;;;2.97;;
10295;SDS011;5193;51.032;6.356;2022-08-11T03:22:16;7.40;;;3.23;;
10295;SDS011;5193;51.032;6.356;2022-08-11T03:30:25;6.70;;;3.27;;
10295;SDS011;5193;51.032;6.356;2022-08-11T03:33:29;8.27;;;3.40;;
10295;SDS011;5193;51.032;6.356;2022-08-11T03:36:27;7.10;;;3.03;;
10295;SDS011;5193;51.032;6.356;2022-08-11T03:47:43;9.77;;;3.20;;
10295;SDS011;5193;51.032;6.356;2022-08-11T03:56:54;10.27;;;3.30;;
10295;SDS011;5193;51.032;6.356;2022-08-11T04:13:29;11.30;;;3.33;;
10295;SDS011;5193;51.032;6.356;2022-08-11T04:24:22;9.33;;;4.17;;
10295;SDS011;5193;51.032;6.356;2022-08-11T04:27:11;15.90;;;4.33;;
10295;SDS011;5193;51.032;6.356;2022-08-11T04:41:08;18.00;;;4.07;;
10295;SDS011;5193;51.032;6.356;2022-08-11T04:55:19;17.67;;;4.33;;
10295;SDS011;5193;51.032;6.356;2022-08-11T04:58:20;18.87;;;4.47;;
10295;SDS011;5193;51.032;6.356;2022-08-11T05:07:12;17.23;;;3.90;;
10295;SDS011;5193;51.032;6.356;2022-08-11T05:12:59;17.80;;;4.00;;
10295;SDS011;5193;51.032;6.356;2022-08-11T05:15:56;14.87;;;4.63;;
10295;SDS011;5193;51.032;6.356;2022-08-11T05:18:53;13.03;;;4.20;;
10295;SDS011;5193;51.032;6.356;2022-08-11T05:21:40;16.50;;;4.23;;
10295;SDS011;5193;51.032;6.356;2022-08-11T05:27:18;11.60;;;4.33;;
10295;SDS011;5193;51.032;6.356;2022-08-11T05:30:06;8.90;;;3.87;;
10295;SDS011;5193;51.032;6.356;2022-08-11T05:33:19;6.73;;;2.73;;
10295;SDS011;5193;51.032;6.356;2022-08-11T05:36:07;9.70;;;3.43;;
10295;SDS011;5193;51.032;6.356;2022-08-11T05:38:40;10.77;;;4.07;;
10295;SDS011;5193;51.032;6.356;2022-08-11T05:41:37;10.23;;;3.90;;
10295;SDS011;5193;51.032;6.356;2022-08-11T05:44:22;7.93;;;3.50;;
10295;SDS011;5193;51.032;6.356;2022-08-11T05:47:09;5.37;;;3.20;;
10295;SDS011;5193;51.032;6.356;2022-08-11T05:49:53;7.87;;;3.50;;
10295;SDS011;5193;51.032;6.356;2022-08-11T05:52:38;5.77;;;3.40;;
10295;SDS011;5193;51.032;6.356;2022-08-11T05:55:22;5.33;;;3.00;;
10295;SDS011;5193;51.032;6.356;2022-08-11T05:58:07;4.27;;;2.90;;
10295;SDS011;5193;51.032;6.356;2022-08-11T06:00:41;4.30;;;3.17;;
10295;SDS011;5193;51.032;6.356;2022-08-11T06:03:09;7.67;;;3.30;;
10295;SDS011;5193;51.032;6.356;2022-08-11T06:05:44;3.60;;;2.80;;
10295;SDS011;5193;51.032;6.356;2022-08-11T06:08:11;8.57;;;3.00;;
10295;SDS011;5193;51.032;6.356;2022-08-11T06:10:38;5.40;;;3.10;;
10295;SDS011;5193;51.032;6.356;2022-08-11T06:13:06;5.17;;;3.20;;
10295;SDS011;5193;51.032;6.356;2022-08-11T06:15:33;11.07;;;3.07;;
10295;SDS011;5193;51.032;6.356;2022-08-11T06:18:14;7.57;;;2.80;;
10295;SDS011;5193;51.032;6.356;2022-08-11T06:23:17;6.17;;;3.03;;
10295;SDS011;5193;51.032;6.356;2022-08-11T06:25:47;5.30;;;2.70;;
10295;SDS011;5193;51.032;6.356;2022-08-11T06:28:15;7.03;;;2.97;;
10295;SDS011;5193;51.032;6.356;2022-08-11T06:30:46;5.23;;;3.07;;
10295;SDS011;5193;51.032;6.356;2022-08-11T06:41:21;8.57;;;3.57;;
10295;SDS011;5193;51.032;6.356;2022-08-11T06:46:28;7.90;;;3.50;;
10295;SDS011;5193;51.032;6.356;2022-08-11T06:48:55;7.33;;;3.43;;
10295;SDS011;5193;51.032;6.356;2022-08-11T06:51:22;6.57;;;3.30;;
10295;SDS011;5193;51.032;6.356;2022-08-11T06:53:50;22.63;;;4.33;;
10295;SDS011;5193;51.032;6.356;2022-08-11T06:56:24;8.90;;;3.50;;
10295;SDS011;5193;51.032;6.356;2022-08-11T06:59:11;8.07;;;4.07;;
10295;SDS011;5193;51.032;6.356;2022-08-11T07:02:07;5.90;;;3.27;;
10295;SDS011;5193;51.032;6.356;2022-08-11T07:04:40;6.73;;;3.57;;
10295;SDS011;5193;51.032;6.356;2022-08-11T07:10:08;4.83;;;3.67;;
10295;SDS011;5193;51.032;6.356;2022-08-11T07:13:11;7.13;;;3.60;;
10295;SDS011;5193;51.032;6.356;2022-08-11T07:15:58;4.60;;;3.67;;
10295;SDS011;5193;51.032;6.356;2022-08-11T07:18:25;6.07;;;3.23;;
10295;SDS011;5193;51.032;6.356;2022-08-11T07:21:20;9.47;;;3.40;;
10295;SDS011;5193;51.032;6.356;2022-08-11T07:24:22;7.87;;;3.30;;
10295;SDS011;5193;51.032;6.356;2022-08-11T07:27:12;4.33;;;3.20;;
10295;SDS011;5193;51.032;6.356;2022-08-11T07:30:07;3.77;;;3.00;;
10295;SDS011;5193;51.032;6.356;2022-08-11T07:32:44;15.80;;;3.53;;
10295;SDS011;5193;51.032;6.356;2022-08-11T07:35:16;8.20;;;3.37;;
10295;SDS011;5193;51.032;6.356;2022-08-11T07:37:52;6.80;;;3.27;;
10295;SDS011;5193;51.032;6.356;2022-08-11T07:40:23;5.67;;;2.93;;
10295;SDS011;5193;51.032;6.356;2022-08-11T07:42:50;2.80;;;2.60;;
10295;SDS011;5193;51.032;6.356;2022-08-11T07:45:17;9.37;;;3.10;;
10295;SDS011;5193;51.032;6.356;2022-08-11T07:48:02;5.90;;;2.97;;
10295;SDS011;5193;51.032;6.356;2022-08-11T07:50:48;4.40;;;2.40;;
10295;SDS011;5193;51.032;6.356;2022-08-11T07:53:33;6.80;;;2.80;;
10295;SDS011;5193;51.032;6.356;2022-08-11T07:56:01;6.27;;;2.60;;
10295;SDS011;5193;51.032;6.356;2022-08-11T07:58:29;6.43;;;2.43;;
10295;SDS011;5193;51.032;6.356;2022-08-11T08:01:18;4.93;;;2.50;;
10295;SDS011;5193;51.032;6.356;2022-08-11T08:04:07;5.17;;;2.60;;
10295;SDS011;5193;51.032;6.356;2022-08-11T08:07:01;4.07;;;2.80;;
10295;SDS011;5193;51.032;6.356;2022-08-11T08:09:47;7.83;;;2.63;;
10295;SDS011;5193;51.032;6.356;2022-08-11T08:12:32;2.90;;;2.60;;
10295;SDS011;5193;51.032;6.356;2022-08-11T08:15:18;5.13;;;2.53;;
10295;SDS011;5193;51.032;6.356;2022-08-11T08:18:04;3.50;;;2.40;;
10295;SDS011;5193;51.032;6.356;2022-08-11T08:20:37;3.50;;;2.33;;
10295;SDS011;5193;51.032;6.356;2022-08-11T08:23:08;13.70;;;2.97;;
10295;SDS011;5193;51.032;6.356;2022-08-11T08:25:35;12.83;;;2.37;;
10295;SDS011;5193;51.032;6.356;2022-08-11T08:28:11;6.80;;;2.40;;
10295;SDS011;5193;51.032;6.356;2022-08-11T08:30:40;7.27;;;2.77;;
10295;SDS011;5193;51.032;6.356;2022-08-11T08:33:21;10.80;;;2.60;;
10295;SDS011;5193;51.032;6.356;2022-08-11T08:35:52;6.97;;;2.53;;
10295;SDS011;5193;51.032;6.356;2022-08-11T08:38:36;6.23;;;2.70;;
10295;SDS011;5193;51.032;6.356;2022-08-11T08:41:05;6.30;;;2.50;;
10295;SDS011;5193;51.032;6.356;2022-08-11T08:43:32;6.37;;;2.60;;
10295;SDS011;5193;51.032;6.356;2022-08-11T08:46:00;6.57;;;2.47;;
10295;SDS011;5193;51.032;6.356;2022-08-11T08:48:27;5.33;;;2.60;;
10295;SDS011;5193;51.032;6.356;2022-08-11T08:51:02;5.13;;;2.20;;
10295;SDS011;5193;51.032;6.356;2022-08-11T08:53:50;8.97;;;2.43;;
10295;SDS011;5193;51.032;6.356;2022-08-11T08:56:17;10.23;;;2.40;;
10295;SDS011;5193;51.032;6.356;2022-08-11T08:58:49;7.73;;;2.30;;
10295;SDS011;5193;51.032;6.356;2022-08-11T09:01:15;15.57;;;3.00;;
10295;SDS011;5193;51.032;6.356;2022-08-11T09:03:46;6.43;;;2.50;;
10295;SDS011;5193;51.032;6.356;2022-08-11T09:06:12;3.07;;;2.30;;
10295;SDS011;5193;51.032;6.356;2022-08-11T09:08:41;8.07;;;2.53;;
10295;SDS011;5193;51.032;6.356;2022-08-11T09:11:07;3.53;;;2.53;;
10295;SDS011;5193;51.032;6.356;2022-08-11T09:13:53;2.40;;;2.20;;
10295;SDS011;5193;51.032;6.356;2022-08-11T09:16:20;6.10;;;2.07;;
10295;SDS011;5193;51.032;6.356;2022-08-11T09:18:47;4.87;;;2.03;;
10295;SDS011;5193;51.032;6.356;2022-08-11T09:21:13;10.63;;;2.17;;
10295;SDS011;5193;51.032;6.356;2022-08-11T09:23:41;7.20;;;2.30;;
10295;SDS011;5193;51.032;6.356;2022-08-11T09:26:28;4.43;;;2.13;;
10295;SDS011;5193;51.032;6.356;2022-08-11T09:29:13;6.13;;;2.07;;
10295;SDS011;5193;51.032;6.356;2022-08-11T09:31:38;6.20;;;1.87;;
10295;SDS011;5193;51.032;6.356;2022-08-11T09:34:05;5.60;;;2.30;;
10295;SDS011;5193;51.032;6.356;2022-08-11T09:36:33;4.20;;;1.90;;
10295;SDS011;5193;51.032;6.356;2022-08-11T09:39:17;3.87;;;2.00;;
10295;SDS011;5193;51.032;6.356;2022-08-11T09:42:02;5.43;;;2.20;;
10295;SDS011;5193;51.032;6.356;2022-08-11T09:44:29;4.70;;;2.13;;
10295;SDS011;5193;51.032;6.356;2022-08-11T09:47:21;2.78;;;2.00;;
10295;SDS011;5193;51.032;6.356;2022-08-11T09:49:53;1.90;;;1.70;;
10295;SDS011;5193;51.032;6.356;2022-08-11T09:52:28;7.45;;;2.20;;
10295;SDS011;5193;51.032;6.356;2022-08-11T09:54:56;2.38;;;2.15;;
10295;SDS011;5193;51.032;6.356;2022-08-11T09:57:23;4.32;;;1.90;;
10295;SDS011;5193;51.032;6.356;2022-08-11T10:00:09;6.60;;;2.28;;
10295;SDS011;5193;51.032;6.356;2022-08-11T10:02:41;8.30;;;2.00;;
10295;SDS011;5193;51.032;6.356;2022-08-11T10:05:08;3.50;;;2.08;;
10295;SDS011;5193;51.032;6.356;2022-08-11T10:07:57;2.17;;;1.98;;
10295;SDS011;5193;51.032;6.356;2022-08-11T10:10:25;3.92;;;2.10;;
10295;SDS011;5193;51.032;6.356;2022-08-11T10:12:58;4.57;;;2.28;;
10295;SDS011;5193;51.032;6.356;2022-08-11T10:15:29;6.25;;;2.00;;
10295;SDS011;5193;51.032;6.356;2022-08-11T10:18:17;4.07;;;1.92;;
10295;SDS011;5193;51.032;6.356;2022-08-11T10:21:49;2.10;;;1.90;;
10295;SDS011;5193;51.032;6.356;2022-08-11T10:24:04;6.50;;;2.25;;
10295;SDS011;5193;51.032;6.356;2022-08-11T10:26:50;5.47;;;2.38;;
10295;SDS011;5193;51.032;6.356;2022-08-11T10:29:31;5.00;;;2.00;;
10295;SDS011;5193;51.032;6.356;2022-08-11T10:32:25;4.93;;;1.88;;
10295;SDS011;5193;51.032;6.356;2022-08-11T10:35:13;4.50;;;2.08;;
10295;SDS011;5193;51.032;6.356;2022-08-11T10:37:40;2.75;;;2.17;;
10295;SDS011;5193;51.032;6.356;2022-08-11T10:40:09;3.63;;;1.83;;
10295;SDS011;5193;51.032;6.356;2022-08-11T10:42:39;3.03;;;2.15;;
10295;SDS011;5193;51.032;6.356;2022-08-11T10:45:24;5.32;;;1.98;;
10295;SDS011;5193;51.032;6.356;2022-08-11T10:48:08;5.40;;;1.90;;
10295;SDS011;5193;51.032;6.356;2022-08-11T10:50:35;2.28;;;1.98;;
10295;SDS011;5193;51.032;6.356;2022-08-11T10:53:20;3.10;;;1.92;;
10295;SDS011;5193;51.032;6.356;2022-08-11T10:56:06;4.30;;;2.53;;
10295;SDS011;5193;51.032;6.356;2022-08-11T10:58:51;6.60;;;2.30;;
10295;SDS011;5193;51.032;6.356;2022-08-11T11:03:54;2.65;;;2.15;;
10295;SDS011;5193;51.032;6.356;2022-08-11T11:09:06;2.45;;;1.83;;
10295;SDS011;5193;51.032;6.356;2022-08-11T11:11:41;1.90;;;1.80;;
10295;SDS011;5193;51.032;6.356;2022-08-11T11:14:30;3.78;;;2.25;;
10295;SDS011;5193;51.032;6.356;2022-08-11T11:17:19;5.88;;;1.88;;
10295;SDS011;5193;51.032;6.356;2022-08-11T11:20:11;5.18;;;2.33;;
10295;SDS011;5193;51.032;6.356;2022-08-11T11:22:41;4.72;;;1.90;;
10295;SDS011;5193;51.032;6.356;2022-08-11T11:27:54;6.05;;;1.98;;
10295;SDS011;5193;51.032;6.356;2022-08-11T11:30:40;2.92;;;2.13;;
10295;SDS011;5193;51.032;6.356;2022-08-11T11:33:57;5.40;;;2.20;;
10295;SDS011;5193;51.032;6.356;2022-08-11T11:36:14;2.55;;;1.90;;
10295;SDS011;5193;51.032;6.356;2022-08-11T11:39:01;2.40;;;2.20;;
10295;SDS011;5193;51.032;6.356;2022-08-11T11:41:27;2.55;;;2.00;;
10295;SDS011;5193;51.032;6.356;2022-08-11T11:43:53;3.35;;;1.90;;
10295;SDS011;5193;51.032;6.356;2022-08-11T11:46:23;3.72;;;2.10;;
10295;SDS011;5193;51.032;6.356;2022-08-11T11:48:52;5.57;;;1.90;;
10295;SDS011;5193;51.032;6.356;2022-08-11T11:51:19;6.32;;;1.90;;
10295;SDS011;5193;51.032;6.356;2022-08-11T11:53:46;2.10;;;1.90;;
10295;SDS011;5193;51.032;6.356;2022-08-11T11:56:13;5.18;;;1.95;;
10295;SDS011;5193;51.032;6.356;2022-08-11T11:58:40;3.55;;;2.10;;
10295;SDS011;5193;51.032;6.356;2022-08-11T12:01:25;6.20;;;2.15;;
10295;SDS011;5193;51.032;6.356;2022-08-11T12:03:53;2.58;;;2.05;;
10295;SDS011;5193;51.032;6.356;2022-08-11T12:06:21;5.15;;;2.05;;
10295;SDS011;5193;51.032;6.356;2022-08-11T12:08:49;2.28;;;2.08;;
10295;SDS011;5193;51.032;6.356;2022-08-11T12:11:18;5.18;;;2.10;;
10295;SDS011;5193;51.032;6.356;2022-08-11T12:14:20;3.35;;;1.90;;
10295;SDS011;5193;51.032;6.356;2022-08-11T12:16:48;3.47;;;2.28;;
10295;SDS011;5193;51.032;6.356;2022-08-11T12:19:15;3.83;;;2.00;;
10295;SDS011;5193;51.032;6.356;2022-08-11T12:21:42;5.10;;;2.10;;
10295;SDS011;5193;51.032;6.356;2022-08-11T12:24:28;2.20;;;2.00;;
10295;SDS011;5193;51.032;6.356;2022-08-11T12:27:15;2.15;;;1.95;;
10295;SDS011;5193;51.032;6.356;2022-08-11T12:29:48;4.43;;;1.77;;
10295;SDS011;5193;51.032;6.356;2022-08-11T12:32:19;3.13;;;1.88;;
10295;SDS011;5193;51.032;6.356;2022-08-11T12:34:46;5.13;;;2.30;;
10295;SDS011;5193;51.032;6.356;2022-08-11T12:37:13;3.70;;;2.00;;
10295;SDS011;5193;51.032;6.356;2022-08-11T12:39:45;7.93;;;2.25;;
10295;SDS011;5193;51.032;6.356;2022-08-11T12:42:33;3.47;;;2.20;;
10295;SDS011;5193;51.032;6.356;2022-08-11T12:45:18;2.22;;;2.03;;
10295;SDS011;5193;51.032;6.356;2022-08-11T12:48:03;5.63;;;2.35;;
10295;SDS011;5193;51.032;6.356;2022-08-11T12:50:55;2.10;;;1.90;;
10295;SDS011;5193;51.032;6.356;2022-08-11T12:53:51;6.47;;;2.10;;
10295;SDS011;5193;51.032;6.356;2022-08-11T12:56:23;2.63;;;1.95;;
10295;SDS011;5193;51.032;6.356;2022-08-11T12:59:19;2.85;;;2.00;;
10295;SDS011;5193;51.032;6.356;2022-08-11T13:02:04;4.00;;;1.98;;
10295;SDS011;5193;51.032;6.356;2022-08-11T13:04:49;6.95;;;2.25;;
10295;SDS011;5193;51.032;6.356;2022-08-11T13:07:18;3.17;;;1.85;;
10295;SDS011;5193;51.032;6.356;2022-08-11T13:09:43;2.88;;;2.15;;
10295;SDS011;5193;51.032;6.356;2022-08-11T13:12:10;3.63;;;2.08;;
10295;SDS011;5193;51.032;6.356;2022-08-11T13:14:55;9.75;;;2.28;;
10295;SDS011;5193;51.032;6.356;2022-08-11T13:17:22;2.83;;;1.88;;
10295;SDS011;5193;51.032;6.356;2022-08-11T13:19:48;5.10;;;1.95;;
10295;SDS011;5193;51.032;6.356;2022-08-11T13:22:19;4.20;;;2.40;;
10295;SDS011;5193;51.032;6.356;2022-08-11T13:24:48;3.70;;;2.10;;
10295;SDS011;5193;51.032;6.356;2022-08-11T13:27:15;3.22;;;2.20;;
10295;SDS011;5193;51.032;6.356;2022-08-11T13:29:42;9.18;;;2.70;;
10295;SDS011;5193;51.032;6.356;2022-08-11T13:32:10;3.65;;;2.30;;
10295;SDS011;5193;51.032;6.356;2022-08-11T13:34:38;4.85;;;2.20;;
10295;SDS011;5193;51.032;6.356;2022-08-11T13:37:06;3.17;;;1.80;;
10295;SDS011;5193;51.032;6.356;2022-08-11T13:39:34;4.97;;;2.45;;
10295;SDS011;5193;51.032;6.356;2022-08-11T13:42:01;4.25;;;2.10;;
10295;SDS011;5193;51.032;6.356;2022-08-11T13:44:32;4.65;;;2.05;;
10295;SDS011;5193;51.032;6.356;2022-08-11T13:47:02;4.32;;;1.70;;
10295;SDS011;5193;51.032;6.356;2022-08-11T13:49:30;6.75;;;2.00;;
10295;SDS011;5193;51.032;6.356;2022-08-11T13:51:56;5.13;;;2.28;;
10295;SDS011;5193;51.032;6.356;2022-08-11T13:54:24;10.82;;;2.38;;
10295;SDS011;5193;51.032;6.356;2022-08-11T13:57:00;2.65;;;2.13;;
10295;SDS011;5193;51.032;6.356;2022-08-11T13:59:28;3.97;;;1.92;;
10295;SDS011;5193;51.032;6.356;2022-08-11T14:01:55;4.78;;;1.92;;
10295;SDS011;5193;51.032;6.356;2022-08-11T14:04:31;7.75;;;2.50;;
10295;SDS011;5193;51.032;6.356;2022-08-11T14:06:59;2.22;;;2.00;;
10295;SDS011;5193;51.032;6.356;2022-08-11T14:09:30;3.83;;;1.85;;
10295;SDS011;5193;51.032;6.356;2022-08-11T14:12:01;3.30;;;2.30;;
10295;SDS011;5193;51.032;6.356;2022-08-11T14:14:55;3.15;;;2.00;;
10295;SDS011;5193;51.032;6.356;2022-08-11T14:17:27;3.67;;;2.20;;
10295;SDS011;5193;51.032;6.356;2022-08-11T14:19:55;5.43;;;2.40;;
10295;SDS011;5193;51.032;6.356;2022-08-11T14:22:24;2.03;;;1.92;;
10295;SDS011;5193;51.032;6.356;2022-08-11T14:24:51;4.65;;;1.90;;
10295;SDS011;5193;51.032;6.356;2022-08-11T14:27:17;3.45;;;2.10;;
10295;SDS011;5193;51.032;6.356;2022-08-11T14:29:50;2.50;;;2.08;;
10295;SDS011;5193;51.032;6.356;2022-08-11T14:32:18;5.15;;;2.42;;
10295;SDS011;5193;51.032;6.356;2022-08-11T14:34:45;3.70;;;2.03;;
10295;SDS011;5193;51.032;6.356;2022-08-11T14:37:13;5.38;;;2.40;;
10295;SDS011;5193;51.032;6.356;2022-08-11T14:39:43;5.65;;;2.40;;
10295;SDS011;5193;51.032;6.356;2022-08-11T14:42:13;8.63;;;2.20;;
10295;SDS011;5193;51.032;6.356;2022-08-11T14:45:04;4.28;;;2.28;;
10295;SDS011;5193;51.032;6.356;2022-08-11T14:47:52;3.83;;;2.13;;
10295;SDS011;5193;51.032;6.356;2022-08-11T14:50:21;2.35;;;1.92;;
10295;SDS011;5193;51.032;6.356;2022-08-11T14:52:51;7.15;;;2.08;;
10295;SDS011;5193;51.032;6.356;2022-08-11T14:55:37;5.30;;;1.92;;
10295;SDS011;5193;51.032;6.356;2022-08-11T14:58:24;3.60;;;2.20;;
10295;SDS011;5193;51.032;6.356;2022-08-11T15:00:53;5.13;;;2.13;;
10295;SDS011;5193;51.032;6.356;2022-08-11T15:03:21;7.03;;;2.33;;
10295;SDS011;5193;51.032;6.356;2022-08-11T15:05:50;3.85;;;2.55;;
10295;SDS011;5193;51.032;6.356;2022-08-11T15:08:17;2.88;;;2.47;;
10295;SDS011;5193;51.032;6.356;2022-08-11T15:10:45;2.63;;;2.13;;
10295;SDS011;5193;51.032;6.356;2022-08-11T15:13:16;3.80;;;2.03;;
10295;SDS011;5193;51.032;6.356;2022-08-11T15:15:45;2.72;;;2.15;;
10295;SDS011;5193;51.032;6.356;2022-08-11T15:18:29;4.65;;;1.83;;
10295;SDS011;5193;51.032;6.356;2022-08-11T15:20:56;3.45;;;2.17;;
10295;SDS011;5193;51.032;6.356;2022-08-11T15:23:40;3.45;;;2.10;;
10295;SDS011;5193;51.032;6.356;2022-08-11T15:26:27;4.32;;;2.55;;
10295;SDS011;5193;51.032;6.356;2022-08-11T15:29:22;2.40;;;2.20;;
10295;SDS011;5193;51.032;6.356;2022-08-11T15:32:11;4.28;;;2.33;;
10295;SDS011;5193;51.032;6.356;2022-08-11T15:34:45;2.75;;;2.00;;
10295;SDS011;5193;51.032;6.356;2022-08-11T15:37:32;2.85;;;2.20;;
10295;SDS011;5193;51.032;6.356;2022-08-11T15:40:02;2.97;;;2.00;;
10295;SDS011;5193;51.032;6.356;2022-08-11T15:45:51;3.10;;;2.20;;
10295;SDS011;5193;51.032;6.356;2022-08-11T15:50:57;3.65;;;2.13;;
10295;SDS011;5193;51.032;6.356;2022-08-11T15:53:50;2.95;;;2.10;;
10295;SDS011;5193;51.032;6.356;2022-08-11T15:56:17;4.93;;;2.22;;
10295;SDS011;5193;51.032;6.356;2022-08-11T15:58:45;3.38;;;2.40;;
10295;SDS011;5193;51.032;6.356;2022-08-11T16:01:32;5.55;;;2.20;;
10295;SDS011;5193;51.032;6.356;2022-08-11T16:04:18;4.47;;;2.50;;
10295;SDS011;5193;51.032;6.356;2022-08-11T16:09:46;10.55;;;2.65;;
10295;SDS011;5193;51.032;6.356;2022-08-11T16:12:37;3.70;;;2.20;;
10295;SDS011;5193;51.032;6.356;2022-08-11T16:15:06;4.25;;;2.45;;
10295;SDS011;5193;51.032;6.356;2022-08-11T16:17:53;3.40;;;2.30;;
10295;SDS011;5193;51.032;6.356;2022-08-11T16:20:23;3.53;;;2.10;;
10295;SDS011;5193;51.032;6.356;2022-08-11T16:22:53;2.72;;;1.90;;
10295;SDS011;5193;51.032;6.356;2022-08-11T16:25:24;5.07;;;2.50;;
10295;SDS011;5193;51.032;6.356;2022-08-11T16:27:52;5.55;;;2.80;;
10295;SDS011;5193;51.032;6.356;2022-08-11T16:30:27;7.40;;;2.17;;
10295;SDS011;5193;51.032;6.356;2022-08-11T16:32:55;6.78;;;2.60;;
10295;SDS011;5193;51.032;6.356;2022-08-11T16:35:23;4.07;;;2.33;;
10295;SDS011;5193;51.032;6.356;2022-08-11T16:38:09;7.38;;;2.45;;
10295;SDS011;5193;51.032;6.356;2022-08-11T16:40:55;4.50;;;2.40;;
10295;SDS011;5193;51.032;6.356;2022-08-11T16:43:25;2.65;;;2.45;;
10295;SDS011;5193;51.032;6.356;2022-08-11T16:46:13;7.03;;;2.50;;
10295;SDS011;5193;51.032;6.356;2022-08-11T16:49:00;6.35;;;2.47;;
10295;SDS011;5193;51.032;6.356;2022-08-11T16:51:29;7.28;;;2.58;;
10295;SDS011;5193;51.032;6.356;2022-08-11T16:53:55;3.70;;;2.60;;
10295;SDS011;5193;51.032;6.356;2022-08-11T16:56:24;2.53;;;2.20;;
10295;SDS011;5193;51.032;6.356;2022-08-11T16:58:59;5.72;;;2.28;;
10295;SDS011;5193;51.032;6.356;2022-08-11T17:01:38;4.80;;;2.63;;
10295;SDS011;5193;51.032;6.356;2022-08-11T17:04:18;5.47;;;2.35;;
10295;SDS011;5193;51.032;6.356;2022-08-11T17:07:15;6.57;;;2.38;;
10295;SDS011;5193;51.032;6.356;2022-08-11T17:10:02;4.00;;;2.60;;
10295;SDS011;5193;51.032;6.356;2022-08-11T17:12:49;5.93;;;2.80;;
10295;SDS011;5193;51.032;6.356;2022-08-11T17:15:36;7.88;;;3.00;;
10295;SDS011;5193;51.032;6.356;2022-08-11T17:18:24;8.43;;;2.80;;
10295;SDS011;5193;51.032;6.356;2022-08-11T17:21:07;3.20;;;2.33;;
10295;SDS011;5193;51.032;6.356;2022-08-11T17:23:37;4.18;;;2.50;;
10295;SDS011;5193;51.032;6.356;2022-08-11T17:26:19;6.63;;;2.50;;
10295;SDS011;5193;51.032;6.356;2022-08-11T17:28:47;6.78;;;2.70;;
10295;SDS011;5193;51.032;6.356;2022-08-11T17:31:23;4.10;;;2.72;;
10295;SDS011;5193;51.032;6.356;2022-08-11T17:34:09;4.70;;;2.33;;
10295;SDS011;5193;51.032;6.356;2022-08-11T17:36:54;6.03;;;2.38;;
10295;SDS011;5193;51.032;6.356;2022-08-11T17:39:23;9.13;;;2.58;;
10295;SDS011;5193;51.032;6.356;2022-08-11T17:41:53;3.28;;;2.63;;
10295;SDS011;5193;51.032;6.356;2022-08-11T17:44:38;9.68;;;2.80;;
10295;SDS011;5193;51.032;6.356;2022-08-11T17:47:23;6.70;;;2.47;;
10295;SDS011;5193;51.032;6.356;2022-08-11T17:50:09;4.28;;;2.38;;
10295;SDS011;5193;51.032;6.356;2022-08-11T17:52:36;8.35;;;2.55;;
10295;SDS011;5193;51.032;6.356;2022-08-11T17:55:23;5.47;;;2.40;;
10295;SDS011;5193;51.032;6.356;2022-08-11T17:58:08;3.22;;;2.40;;
10295;SDS011;5193;51.032;6.356;2022-08-11T18:00:59;5.97;;;2.58;;
10295;SDS011;5193;51.032;6.356;2022-08-11T18:03:29;5.03;;;2.47;;
10295;SDS011;5193;51.032;6.356;2022-08-11T18:06:07;3.28;;;2.65;;
10295;SDS011;5193;51.032;6.356;2022-08-11T18:12:02;8.40;;;2.70;;
10295;SDS011;5193;51.032;6.356;2022-08-11T18:15:16;4.07;;;2.67;;
10295;SDS011;5193;51.032;6.356;2022-08-11T18:24:57;3.78;;;2.80;;
10295;SDS011;5193;51.032;6.356;2022-08-11T18:27:51;9.35;;;2.60;;
10295;SDS011;5193;51.032;6.356;2022-08-11T18:31:17;4.82;;;2.60;;
10295;SDS011;5193;51.032;6.356;2022-08-11T18:34:19;4.50;;;2.42;;
10295;SDS011;5193;51.032;6.356;2022-08-11T18:37:49;4.85;;;2.63;;
10295;SDS011;5193;51.032;6.356;2022-08-11T18:44:34;3.88;;;2.83;;
10295;SDS011;5193;51.032;6.356;2022-08-11T18:47:58;8.53;;;2.57;;
10295;SDS011;5193;51.032;6.356;2022-08-11T18:50:50;9.30;;;2.60;;
10295;SDS011;5193;51.032;6.356;2022-08-11T18:53:49;5.80;;;2.80;;
10295;SDS011;5193;51.032;6.356;2022-08-11T19:03:13;13.20;;;3.10;;
10295;SDS011;5193;51.032;6.356;2022-08-11T19:06:00;10.20;;;2.60;;
10295;SDS011;5193;51.032;6.356;2022-08-11T19:12:21;7.67;;;2.70;;
10295;SDS011;5193;51.032;6.356;2022-08-11T19:18:52;11.93;;;2.70;;
10295;SDS011;5193;51.032;6.356;2022-08-11T19:25:36;11.73;;;2.90;;
10295;SDS011;5193;51.032;6.356;2022-08-11T19:28:21;4.73;;;2.90;;
10295;SDS011;5193;51.032;6.356;2022-08-11T19:31:07;8.90;;;2.50;;
10295;SDS011;5193;51.032;6.356;2022-08-11T19:33:53;10.23;;;2.73;;
10295;SDS011;5193;51.032;6.356;2022-08-11T19:36:40;8.17;;;2.70;;
10295;SDS011;5193;51.032;6.356;2022-08-11T19:39:25;8.30;;;2.80;;
10295;SDS011;5193;51.032;6.356;2022-08-11T19:42:10;6.03;;;2.83;;
10295;SDS011;5193;51.032;6.356;2022-08-11T19:44:56;9.13;;;2.60;;
10295;SDS011;5193;51.032;6.356;2022-08-11T19:47:45;10.93;;;2.80;;
10295;SDS011;5193;51.032;6.356;2022-08-11T19:50:31;11.00;;;2.90;;
10295;SDS011;5193;51.032;6.356;2022-08-11T19:53:16;7.33;;;2.97;;
10295;SDS011;5193;51.032;6.356;2022-08-11T19:56:02;9.07;;;3.00;;
10295;SDS011;5193;51.032;6.356;2022-08-11T19:58:48;21.93;;;3.40;;
10295;SDS011;5193;51.032;6.356;2022-08-11T20:01:33;15.00;;;2.90;;
10295;SDS011;5193;51.032;6.356;2022-08-11T20:04:17;23.43;;;3.40;;
10295;SDS011;5193;51.032;6.356;2022-08-11T20:07:02;31.07;;;4.43;;
10295;SDS011;5193;51.032;6.356;2022-08-11T20:09:52;37.70;;;4.27;;
10295;SDS011;5193;51.032;6.356;2022-08-11T20:16:18;8.73;;;2.87;;
10295;SDS011;5193;51.032;6.356;2022-08-11T20:19:04;9.40;;;3.00;;
10295;SDS011;5193;51.032;6.356;2022-08-11T20:22:02;9.33;;;2.80;;
10295;SDS011;5193;51.032;6.356;2022-08-11T20:25:07;5.20;;;3.20;;